sensor_id;sensor_type;location;lat;lon;timestamp;pressure;altitude;pressure_sealevel;temperature;humidity
22206;BME280;11272;50.104;8.754;2023-05-18T00:01:49;101461.91;;;10.78;49.01
22206;BME280;11272;50.104;8.754;2023-05-18T00:04:18;101461.03;;;10.71;49.14
22206;BME280;11272;50.104;8.754;2023-05-18T00:06:52;101449.56;;;10.68;48.82
22206;BME280;11272;50.104;8.754;2023-05-18T00:09:24;101454.88;;;10.65;49.42
22206;BME280;11272;50.104;8.754;2023-05-18T00:11:54;101454.88;;;10.63;49.10
22206;BME280;11272;50.104;8.754;2023-05-18T00:14:20;101462.00;;;10.61;49.37
22206;BME280;11272;50.104;8.754;2023-05-18T00:16:46;101450.50;;;10.56;49.31
22206;BME280;11272;50.104;8.754;2023-05-18T00:19:13;101456.69;;;10.53;50.07
22206;BME280;11272;50.104;8.754;2023-05-18T00:21:42;101455.81;;;10.53;49.90
22206;BME280;11272;50.104;8.754;2023-05-18T00:24:09;101455.84;;;10.50;49.97
22206;BME280;11272;50.104;8.754;2023-05-18T00:26:42;101451.41;;;10.49;50.05
22206;BME280;11272;50.104;8.754;2023-05-18T00:29:08;101456.72;;;10.47;49.41
22206;BME280;11272;50.104;8.754;2023-05-18T00:31:35;101455.88;;;10.42;49.66
22206;BME280;11272;50.104;8.754;2023-05-18T00:34:09;101456.78;;;10.38;49.86
22206;BME280;11272;50.104;8.754;2023-05-18T00:36:35;101464.75;;;10.34;50.36
22206;BME280;11272;50.104;8.754;2023-05-18T00:39:02;101455.06;;;10.30;50.83
22206;BME280;11272;50.104;8.754;2023-05-18T00:41:28;101455.94;;;10.29;50.09
22206;BME280;11272;50.104;8.754;2023-05-18T00:43:55;101460.34;;;10.28;50.08
22206;BME280;11272;50.104;8.754;2023-05-18T00:46:22;101455.03;;;10.27;50.53
22206;BME280;11272;50.104;8.754;2023-05-18T00:48:49;101453.31;;;10.24;50.59
22206;BME280;11272;50.104;8.754;2023-05-18T00:51:17;101454.19;;;10.22;50.52
22206;BME280;11272;50.104;8.754;2023-05-18T00:53:43;101457.72;;;10.21;50.57
22206;BME280;11272;50.104;8.754;2023-05-18T00:56:09;101451.53;;;10.19;50.53
22206;BME280;11272;50.104;8.754;2023-05-18T00:58:36;101455.06;;;10.14;51.08
22206;BME280;11272;50.104;8.754;2023-05-18T01:01:02;101456.84;;;10.08;50.96
22206;BME280;11272;50.104;8.754;2023-05-18T01:03:32;101454.22;;;10.03;50.96
22206;BME280;11272;50.104;8.754;2023-05-18T01:05:58;101451.56;;;10.03;50.97
22206;BME280;11272;50.104;8.754;2023-05-18T01:08:25;101453.34;;;10.03;50.89
22206;BME280;11272;50.104;8.754;2023-05-18T01:11:01;101455.09;;;9.99;51.17
22206;BME280;11272;50.104;8.754;2023-05-18T01:13:38;101456.00;;;9.92;51.16
22206;BME280;11272;50.104;8.754;2023-05-18T01:16:09;101450.72;;;9.91;51.45
22206;BME280;11272;50.104;8.754;2023-05-18T01:18:45;101446.28;;;9.88;51.89
22206;BME280;11272;50.104;8.754;2023-05-18T01:21:31;101446.28;;;9.85;51.49
22206;BME280;11272;50.104;8.754;2023-05-18T01:24:25;101456.03;;;9.86;51.61
22206;BME280;11272;50.104;8.754;2023-05-18T01:26:58;101455.13;;;9.84;51.38
22206;BME280;11272;50.104;8.754;2023-05-18T01:29:28;101455.13;;;9.84;51.74
22206;BME280;11272;50.104;8.754;2023-05-18T01:31:56;101460.47;;;9.83;51.63
22206;BME280;11272;50.104;8.754;2023-05-18T01:34:22;101467.53;;;9.81;51.51
22206;BME280;11272;50.104;8.754;2023-05-18T01:36:48;101460.44;;;9.78;51.47
22206;BME280;11272;50.104;8.754;2023-05-18T01:39:13;101458.69;;;9.76;51.70
22206;BME280;11272;50.104;8.754;2023-05-18T01:41:46;101454.25;;;9.73;51.73
22206;BME280;11272;50.104;8.754;2023-05-18T01:47:09;101452.50;;;9.69;51.68
22206;BME280;11272;50.104;8.754;2023-05-18T01:52:23;101456.91;;;9.67;52.20
22206;BME280;11272;50.104;8.754;2023-05-18T01:54:52;101456.94;;;9.65;52.44
22206;BME280;11272;50.104;8.754;2023-05-18T01:57:22;101455.19;;;9.61;51.81
22206;BME280;11272;50.104;8.754;2023-05-18T01:59:50;101452.53;;;9.60;51.84
22206;BME280;11272;50.104;8.754;2023-05-18T02:02:19;101450.75;;;9.59;51.96
22206;BME280;11272;50.104;8.754;2023-05-18T02:04:45;101453.41;;;9.57;52.22
22206;BME280;11272;50.104;8.754;2023-05-18T02:09:59;101451.66;;;9.50;52.81
22206;BME280;11272;50.104;8.754;2023-05-18T02:12:26;101456.06;;;9.48;52.61
22206;BME280;11272;50.104;8.754;2023-05-18T02:14:52;101453.41;;;9.47;52.75
22206;BME280;11272;50.104;8.754;2023-05-18T02:17:23;101458.75;;;9.45;52.49
22206;BME280;11272;50.104;8.754;2023-05-18T02:19:53;101452.53;;;9.45;52.43
22206;BME280;11272;50.104;8.754;2023-05-18T02:22:24;101448.13;;;9.42;52.78
22206;BME280;11272;50.104;8.754;2023-05-18T02:24:52;101453.41;;;9.41;52.92
22206;BME280;11272;50.104;8.754;2023-05-18T02:27:22;101456.97;;;9.40;52.84
22206;BME280;11272;50.104;8.754;2023-05-18T02:29:51;101455.19;;;9.36;53.15
22206;BME280;11272;50.104;8.754;2023-05-18T02:32:21;101464.91;;;9.34;53.19
22206;BME280;11272;50.104;8.754;2023-05-18T02:34:51;101454.28;;;9.30;53.66
22206;BME280;11272;50.104;8.754;2023-05-18T02:37:19;101452.53;;;9.29;53.17
22206;BME280;11272;50.104;8.754;2023-05-18T02:39:48;101453.44;;;9.28;53.32
22206;BME280;11272;50.104;8.754;2023-05-18T02:42:17;101454.31;;;9.27;53.63
22206;BME280;11272;50.104;8.754;2023-05-18T02:44:44;101456.06;;;9.25;53.27
22206;BME280;11272;50.104;8.754;2023-05-18T02:47:14;101453.44;;;9.22;53.39
22206;BME280;11272;50.104;8.754;2023-05-18T02:49:40;101449.88;;;9.22;53.83
22206;BME280;11272;50.104;8.754;2023-05-18T02:52:09;101453.41;;;9.19;53.20
22206;BME280;11272;50.104;8.754;2023-05-18T02:54:38;101452.53;;;9.17;53.42
22206;BME280;11272;50.104;8.754;2023-05-18T02:57:13;101457.81;;;9.16;53.91
22206;BME280;11272;50.104;8.754;2023-05-18T02:59:53;101459.59;;;9.11;53.85
22206;BME280;11272;50.104;8.754;2023-05-18T03:02:19;101454.28;;;9.09;53.92
22206;BME280;11272;50.104;8.754;2023-05-18T03:04:48;101453.41;;;9.07;54.11
22206;BME280;11272;50.104;8.754;2023-05-18T03:07:31;101461.34;;;9.06;53.85
22206;BME280;11272;50.104;8.754;2023-05-18T03:10:02;101459.56;;;9.03;54.00
22206;BME280;11272;50.104;8.754;2023-05-18T03:12:32;101456.94;;;9.02;54.14
22206;BME280;11272;50.104;8.754;2023-05-18T03:14:59;101464.88;;;8.96;54.08
22206;BME280;11272;50.104;8.754;2023-05-18T03:17:31;101463.09;;;8.93;54.24
22206;BME280;11272;50.104;8.754;2023-05-18T03:20:01;101458.69;;;8.91;54.18
22206;BME280;11272;50.104;8.754;2023-05-18T03:22:31;101468.38;;;8.87;53.98
22206;BME280;11272;50.104;8.754;2023-05-18T03:24:59;101466.63;;;8.86;54.57
22206;BME280;11272;50.104;8.754;2023-05-18T03:27:27;101464.81;;;8.82;54.73
22206;BME280;11272;50.104;8.754;2023-05-18T03:29:57;101465.72;;;8.81;54.52
22206;BME280;11272;50.104;8.754;2023-05-18T03:32:27;101463.94;;;8.81;54.02
22206;BME280;11272;50.104;8.754;2023-05-18T03:34:57;101459.56;;;8.80;54.50
22206;BME280;11272;50.104;8.754;2023-05-18T03:37:26;101466.59;;;8.77;54.66
22206;BME280;11272;50.104;8.754;2023-05-18T03:39:52;101463.94;;;8.74;55.13
22206;BME280;11272;50.104;8.754;2023-05-18T03:42:19;101471.88;;;8.69;54.99
22206;BME280;11272;50.104;8.754;2023-05-18T03:44:45;101472.75;;;8.68;55.05
22206;BME280;11272;50.104;8.754;2023-05-18T03:47:11;101474.50;;;8.63;54.93
22206;BME280;11272;50.104;8.754;2023-05-18T03:49:37;101477.13;;;8.62;55.19
22206;BME280;11272;50.104;8.754;2023-05-18T03:52:04;101475.38;;;8.58;55.10
22206;BME280;11272;50.104;8.754;2023-05-18T03:54:31;101475.34;;;8.56;55.25
22206;BME280;11272;50.104;8.754;2023-05-18T03:56:58;101487.69;;;8.53;55.11
22206;BME280;11272;50.104;8.754;2023-05-18T03:59:24;101474.44;;;8.51;55.53
22206;BME280;11272;50.104;8.754;2023-05-18T04:01:51;101475.34;;;8.49;55.71
22206;BME280;11272;50.104;8.754;2023-05-18T04:04:19;101480.63;;;8.49;55.89
22206;BME280;11272;50.104;8.754;2023-05-18T04:06:49;101480.63;;;8.49;55.87
22206;BME280;11272;50.104;8.754;2023-05-18T04:09:18;101485.03;;;8.48;55.77
22206;BME280;11272;50.104;8.754;2023-05-18T04:11:46;101490.31;;;8.47;56.04
22206;BME280;11272;50.104;8.754;2023-05-18T04:14:14;101485.91;;;8.45;55.72
22206;BME280;11272;50.104;8.754;2023-05-18T04:16:41;101482.38;;;8.47;55.95
22206;BME280;11272;50.104;8.754;2023-05-18T04:19:11;101490.31;;;8.45;56.26
22206;BME280;11272;50.104;8.754;2023-05-18T04:21:38;101499.13;;;8.45;56.08
22206;BME280;11272;50.104;8.754;2023-05-18T04:24:09;101500.03;;;8.48;56.22
22206;BME280;11272;50.104;8.754;2023-05-18T04:26:40;101500.91;;;8.48;56.37
22206;BME280;11272;50.104;8.754;2023-05-18T04:29:07;101500.91;;;8.51;56.23
22206;BME280;11272;50.104;8.754;2023-05-18T04:31:36;101507.13;;;8.55;56.46
22206;BME280;11272;50.104;8.754;2023-05-18T04:34:02;101497.41;;;8.57;56.11
22206;BME280;11272;50.104;8.754;2023-05-18T04:36:28;101506.25;;;8.59;55.92
22206;BME280;11272;50.104;8.754;2023-05-18T04:39:01;101498.31;;;8.59;56.01
22206;BME280;11272;50.104;8.754;2023-05-18T04:41:33;101502.75;;;8.60;56.45
22206;BME280;11272;50.104;8.754;2023-05-18T04:43:59;101513.31;;;8.66;56.20
22206;BME280;11272;50.104;8.754;2023-05-18T04:46:33;101501.91;;;8.70;55.93
22206;BME280;11272;50.104;8.754;2023-05-18T04:49:02;101507.19;;;8.74;56.08
22206;BME280;11272;50.104;8.754;2023-05-18T04:51:33;101508.97;;;8.80;56.41
22206;BME280;11272;50.104;8.754;2023-05-18T04:54:00;101511.63;;;8.84;56.19
22206;BME280;11272;50.104;8.754;2023-05-18T04:56:28;101512.53;;;8.90;55.97
22206;BME280;11272;50.104;8.754;2023-05-18T04:58:54;101508.13;;;8.95;56.17
22206;BME280;11272;50.104;8.754;2023-05-18T05:01:24;101510.81;;;9.05;56.15
22206;BME280;11272;50.104;8.754;2023-05-18T05:03:50;101512.59;;;9.15;56.13
22206;BME280;11272;50.104;8.754;2023-05-18T05:06:16;101507.31;;;9.23;55.84
22206;BME280;11272;50.104;8.754;2023-05-18T05:08:51;101509.97;;;9.32;55.93
22206;BME280;11272;50.104;8.754;2023-05-18T05:11:17;101503.81;;;9.45;56.36
22206;BME280;11272;50.104;8.754;2023-05-18T05:13:45;101503.78;;;9.63;56.11
22206;BME280;11272;50.104;8.754;2023-05-18T05:16:15;101502.00;;;9.81;55.38
22206;BME280;11272;50.104;8.754;2023-05-18T05:18:44;101495.81;;;9.98;55.58
22206;BME280;11272;50.104;8.754;2023-05-18T05:21:11;101496.66;;;10.12;55.31
22206;BME280;11272;50.104;8.754;2023-05-18T05:23:37;101502.81;;;10.31;55.24
22206;BME280;11272;50.104;8.754;2023-05-18T05:26:04;101496.56;;;10.52;55.38
22206;BME280;11272;50.104;8.754;2023-05-18T05:28:33;101497.34;;;10.72;54.57
22206;BME280;11272;50.104;8.754;2023-05-18T05:31:00;101499.00;;;10.93;54.42
22206;BME280;11272;50.104;8.754;2023-05-18T05:33:26;101498.00;;;11.12;54.37
22206;BME280;11272;50.104;8.754;2023-05-18T05:35:53;101496.97;;;11.33;54.30
22206;BME280;11272;50.104;8.754;2023-05-18T05:38:20;101500.34;;;11.55;53.67
22206;BME280;11272;50.104;8.754;2023-05-18T05:40:46;101507.34;;;11.66;53.35
22206;BME280;11272;50.104;8.754;2023-05-18T05:43:12;101510.81;;;11.80;52.91
22206;BME280;11272;50.104;8.754;2023-05-18T05:45:42;101496.47;;;11.94;52.74
22206;BME280;11272;50.104;8.754;2023-05-18T05:48:13;101502.53;;;12.11;52.43
22206;BME280;11272;50.104;8.754;2023-05-18T05:50:41;101514.72;;;12.32;52.84
22206;BME280;11272;50.104;8.754;2023-05-18T05:53:07;101498.53;;;12.50;52.04
22206;BME280;11272;50.104;8.754;2023-05-18T05:55:36;101504.59;;;12.61;51.59
22206;BME280;11272;50.104;8.754;2023-05-18T05:58:08;101502.66;;;12.75;51.48
22206;BME280;11272;50.104;8.754;2023-05-18T06:00:35;101500.66;;;12.92;51.21
22206;BME280;11272;50.104;8.754;2023-05-18T06:03:02;101504.88;;;13.07;51.05
22206;BME280;11272;50.104;8.754;2023-05-18T06:05:41;101500.22;;;13.21;50.92
22206;BME280;11272;50.104;8.754;2023-05-18T06:08:09;101498.19;;;13.40;50.54
22206;BME280;11272;50.104;8.754;2023-05-18T06:10:35;101504.97;;;13.58;50.15
22206;BME280;11272;50.104;8.754;2023-05-18T06:13:01;101505.75;;;13.66;49.78
22206;BME280;11272;50.104;8.754;2023-05-18T06:15:37;101510.91;;;13.76;49.54
22206;BME280;11272;50.104;8.754;2023-05-18T06:18:04;101502.59;;;13.93;49.40
22206;BME280;11272;50.104;8.754;2023-05-18T06:20:29;101504.28;;;13.99;49.16
22206;BME280;11272;50.104;8.754;2023-05-18T06:22:55;101506.59;;;14.18;49.04
22206;BME280;11272;50.104;8.754;2023-05-18T06:25:28;101509.75;;;14.42;48.17
22206;BME280;11272;50.104;8.754;2023-05-18T06:28:03;101503.00;;;14.65;48.23
22206;BME280;11272;50.104;8.754;2023-05-18T06:30:37;101503.38;;;14.90;47.89
22206;BME280;11272;50.104;8.754;2023-05-18T06:33:25;101508.06;;;15.17;47.26
22206;BME280;11272;50.104;8.754;2023-05-18T06:35:53;101512.34;;;15.26;46.99
22206;BME280;11272;50.104;8.754;2023-05-18T06:38:19;101509.22;;;15.44;46.76
22206;BME280;11272;50.104;8.754;2023-05-18T06:40:45;101500.78;;;15.63;46.16
22206;BME280;11272;50.104;8.754;2023-05-18T06:43:11;101498.47;;;15.83;45.62
22206;BME280;11272;50.104;8.754;2023-05-18T06:45:51;101502.31;;;16.07;45.90
22206;BME280;11272;50.104;8.754;2023-05-18T06:48:27;101503.41;;;16.32;45.31
22206;BME280;11272;50.104;8.754;2023-05-18T06:50:54;101499.69;;;16.36;44.80
22206;BME280;11272;50.104;8.754;2023-05-18T06:53:20;101509.25;;;16.46;44.54
22206;BME280;11272;50.104;8.754;2023-05-18T06:55:49;101503.13;;;16.73;44.59
22206;BME280;11272;50.104;8.754;2023-05-18T06:58:15;101496.28;;;16.93;44.06
22206;BME280;11272;50.104;8.754;2023-05-18T07:00:41;101504.78;;;17.07;43.67
22206;BME280;11272;50.104;8.754;2023-05-18T07:03:09;101512.06;;;17.03;43.04
22206;BME280;11272;50.104;8.754;2023-05-18T07:05:35;101504.41;;;17.19;43.19
22206;BME280;11272;50.104;8.754;2023-05-18T07:08:01;101498.16;;;17.46;43.07
22206;BME280;11272;50.104;8.754;2023-05-18T07:10:30;101506.19;;;17.74;42.73
22206;BME280;11272;50.104;8.754;2023-05-18T07:12:56;101501.59;;;18.04;42.36
22206;BME280;11272;50.104;8.754;2023-05-18T07:15:22;101502.47;;;18.29;41.67
22206;BME280;11272;50.104;8.754;2023-05-18T07:17:50;101502.63;;;18.49;41.62
22206;BME280;11272;50.104;8.754;2023-05-18T07:20:16;101501.63;;;18.77;41.21
22206;BME280;11272;50.104;8.754;2023-05-18T07:22:42;101501.66;;;18.99;40.80
22206;BME280;11272;50.104;8.754;2023-05-18T07:25:08;101500.28;;;19.12;40.30
22206;BME280;11272;50.104;8.754;2023-05-18T07:27:34;101505.69;;;19.33;40.33
22206;BME280;11272;50.104;8.754;2023-05-18T07:29:59;101497.28;;;19.63;40.04
22206;BME280;11272;50.104;8.754;2023-05-18T07:32:25;101497.00;;;19.91;39.37
22206;BME280;11272;50.104;8.754;2023-05-18T07:34:53;101490.47;;;20.16;38.88
22206;BME280;11272;50.104;8.754;2023-05-18T07:37:19;101484.00;;;20.41;38.73
22206;BME280;11272;50.104;8.754;2023-05-18T07:39:45;101487.03;;;20.53;38.41
22206;BME280;11272;50.104;8.754;2023-05-18T07:42:11;101477.16;;;20.73;37.83
22206;BME280;11272;50.104;8.754;2023-05-18T07:44:37;101482.25;;;20.97;37.58
22206;BME280;11272;50.104;8.754;2023-05-18T07:47:03;101472.03;;;21.04;37.32
22206;BME280;11272;50.104;8.754;2023-05-18T07:49:29;101473.00;;;21.22;37.02
22206;BME280;11272;50.104;8.754;2023-05-18T07:51:55;101472.59;;;21.48;36.54
22206;BME280;11272;50.104;8.754;2023-05-18T07:54:21;101474.75;;;21.59;36.50
22206;BME280;11272;50.104;8.754;2023-05-18T07:56:47;101468.41;;;21.77;36.08
22206;BME280;11272;50.104;8.754;2023-05-18T07:59:13;101471.00;;;21.97;35.75
22206;BME280;11272;50.104;8.754;2023-05-18T08:01:39;101469.66;;;22.06;34.98
22206;BME280;11272;50.104;8.754;2023-05-18T08:04:05;101463.19;;;22.08;35.03
22206;BME280;11272;50.104;8.754;2023-05-18T08:06:31;101464.63;;;21.98;34.28
22206;BME280;11272;50.104;8.754;2023-05-18T08:08:58;101457.34;;;21.81;34.93
22206;BME280;11272;50.104;8.754;2023-05-18T08:11:25;101456.44;;;22.17;34.65
22206;BME280;11272;50.104;8.754;2023-05-18T08:13:50;101460.34;;;22.44;34.20
22206;BME280;11272;50.104;8.754;2023-05-18T08:16:16;101464.28;;;22.72;33.95
22206;BME280;11272;50.104;8.754;2023-05-18T08:18:42;101458.41;;;23.12;33.58
22206;BME280;11272;50.104;8.754;2023-05-18T08:21:09;101457.84;;;23.37;33.19
22206;BME280;11272;50.104;8.754;2023-05-18T08:23:36;101452.06;;;23.59;32.73
22206;BME280;11272;50.104;8.754;2023-05-18T08:26:02;101457.53;;;23.73;32.40
22206;BME280;11272;50.104;8.754;2023-05-18T08:28:29;101450.59;;;23.83;31.99
22206;BME280;11272;50.104;8.754;2023-05-18T08:30:55;101447.53;;;24.19;31.77
22206;BME280;11272;50.104;8.754;2023-05-18T08:33:21;101435.78;;;24.47;31.09
22206;BME280;11272;50.104;8.754;2023-05-18T08:35:48;101440.66;;;24.70;30.79
22206;BME280;11272;50.104;8.754;2023-05-18T08:38:15;101427.94;;;24.99;30.43
22206;BME280;11272;50.104;8.754;2023-05-18T08:40:45;101428.13;;;25.23;29.94
22206;BME280;11272;50.104;8.754;2023-05-18T08:43:20;101426.28;;;25.50;29.93
22206;BME280;11272;50.104;8.754;2023-05-18T08:45:52;101427.59;;;25.71;29.36
22206;BME280;11272;50.104;8.754;2023-05-18T08:48:21;101433.25;;;25.68;28.83
22206;BME280;11272;50.104;8.754;2023-05-18T08:50:53;101419.31;;;25.73;28.56
22206;BME280;11272;50.104;8.754;2023-05-18T08:53:23;101430.47;;;25.95;28.74
22206;BME280;11272;50.104;8.754;2023-05-18T08:55:52;101421.13;;;26.12;28.10
22206;BME280;11272;50.104;8.754;2023-05-18T08:58:20;101412.00;;;26.38;27.78
22206;BME280;11272;50.104;8.754;2023-05-18T09:00:53;101411.53;;;26.69;27.51
22206;BME280;11272;50.104;8.754;2023-05-18T09:03:19;101405.59;;;27.01;27.04
22206;BME280;11272;50.104;8.754;2023-05-18T09:05:47;101401.66;;;27.29;27.11
22206;BME280;11272;50.104;8.754;2023-05-18T09:08:16;101399.25;;;27.48;26.72
22206;BME280;11272;50.104;8.754;2023-05-18T09:10:43;101400.09;;;27.61;26.28
22206;BME280;11272;50.104;8.754;2023-05-18T09:13:12;101395.81;;;27.81;25.99
22206;BME280;11272;50.104;8.754;2023-05-18T09:15:39;101395.72;;;27.58;25.77
22206;BME280;11272;50.104;8.754;2023-05-18T09:18:05;101392.81;;;27.25;25.86
22206;BME280;11272;50.104;8.754;2023-05-18T09:20:31;101389.34;;;27.23;26.04
22206;BME280;11272;50.104;8.754;2023-05-18T09:22:58;101383.13;;;27.45;26.08
22206;BME280;11272;50.104;8.754;2023-05-18T09:25:26;101378.25;;;27.61;25.68
22206;BME280;11272;50.104;8.754;2023-05-18T09:27:52;101389.00;;;27.51;25.57
22206;BME280;11272;50.104;8.754;2023-05-18T09:30:17;101390.59;;;27.78;25.76
22206;BME280;11272;50.104;8.754;2023-05-18T09:32:45;101378.91;;;28.22;25.06
22206;BME280;11272;50.104;8.754;2023-05-18T09:35:12;101372.94;;;28.61;24.91
22206;BME280;11272;50.104;8.754;2023-05-18T09:37:41;101370.81;;;28.87;24.50
22206;BME280;11272;50.104;8.754;2023-05-18T09:40:08;101363.66;;;29.18;24.20
22206;BME280;11272;50.104;8.754;2023-05-18T09:42:40;101371.94;;;29.39;23.79
22206;BME280;11272;50.104;8.754;2023-05-18T09:45:18;101364.38;;;29.31;23.66
22206;BME280;11272;50.104;8.754;2023-05-18T09:47:45;101367.34;;;29.60;23.44
22206;BME280;11272;50.104;8.754;2023-05-18T09:50:11;101362.03;;;29.79;22.85
22206;BME280;11272;50.104;8.754;2023-05-18T09:52:41;101362.94;;;30.00;22.61
22206;BME280;11272;50.104;8.754;2023-05-18T09:55:11;101363.03;;;30.20;22.35
22206;BME280;11272;50.104;8.754;2023-05-18T09:57:42;101356.16;;;30.56;21.93
22206;BME280;11272;50.104;8.754;2023-05-18T10:00:09;101346.53;;;30.71;21.69
22206;BME280;11272;50.104;8.754;2023-05-18T10:02:40;101352.91;;;30.81;21.71
22206;BME280;11272;50.104;8.754;2023-05-18T10:05:17;101356.13;;;30.95;21.62
22206;BME280;11272;50.104;8.754;2023-05-18T10:07:44;101346.22;;;31.14;20.85
22206;BME280;11272;50.104;8.754;2023-05-18T10:10:11;101342.31;;;31.26;20.76
22206;BME280;11272;50.104;8.754;2023-05-18T10:12:40;101342.88;;;31.49;20.32
22206;BME280;11272;50.104;8.754;2023-05-18T10:15:09;101335.34;;;31.80;20.41
22206;BME280;11272;50.104;8.754;2023-05-18T10:17:39;101330.97;;;31.96;20.05
22206;BME280;11272;50.104;8.754;2023-05-18T10:20:08;101333.06;;;32.31;20.07
22206;BME280;11272;50.104;8.754;2023-05-18T10:22:35;101327.53;;;32.41;19.63
22206;BME280;11272;50.104;8.754;2023-05-18T10:25:05;101332.84;;;32.15;19.41
22206;BME280;11272;50.104;8.754;2023-05-18T10:27:34;101318.91;;;32.16;19.42
22206;BME280;11272;50.104;8.754;2023-05-18T10:30:01;101316.53;;;32.41;19.07
22206;BME280;11272;50.104;8.754;2023-05-18T10:32:31;101313.16;;;32.00;18.69
22206;BME280;11272;50.104;8.754;2023-05-18T10:34:59;101316.31;;;31.59;19.22
22206;BME280;11272;50.104;8.754;2023-05-18T10:37:26;101319.03;;;31.59;19.00
22206;BME280;11272;50.104;8.754;2023-05-18T10:39:55;101326.09;;;31.81;19.13
22206;BME280;11272;50.104;8.754;2023-05-18T10:42:24;101331.34;;;32.11;18.96
22206;BME280;11272;50.104;8.754;2023-05-18T10:44:52;101320.84;;;32.43;18.86
22206;BME280;11272;50.104;8.754;2023-05-18T10:47:19;101322.44;;;32.46;18.47
22206;BME280;11272;50.104;8.754;2023-05-18T10:49:47;101319.53;;;32.01;18.83
22206;BME280;11272;50.104;8.754;2023-05-18T10:52:15;101318.31;;;31.57;18.77
22206;BME280;11272;50.104;8.754;2023-05-18T10:54:42;101318.84;;;30.93;18.80
22206;BME280;11272;50.104;8.754;2023-05-18T10:57:13;101320.72;;;30.43;19.28
22206;BME280;11272;50.104;8.754;2023-05-18T10:59:42;101317.41;;;30.19;19.18
22206;BME280;11272;50.104;8.754;2023-05-18T11:02:13;101316.78;;;30.36;19.20
22206;BME280;11272;50.104;8.754;2023-05-18T11:04:39;101305.97;;;30.04;19.95
22206;BME280;11272;50.104;8.754;2023-05-18T11:07:10;101306.97;;;30.33;19.69
22206;BME280;11272;50.104;8.754;2023-05-18T11:09:39;101318.31;;;30.49;19.53
22206;BME280;11272;50.104;8.754;2023-05-18T11:12:13;101312.75;;;30.70;19.28
22206;BME280;11272;50.104;8.754;2023-05-18T11:14:50;101314.53;;;31.10;19.42
22206;BME280;11272;50.104;8.754;2023-05-18T11:27:58;101275.22;;;30.71;19.34
22206;BME280;11272;50.104;8.754;2023-05-18T11:30:44;101287.97;;;31.10;19.28
22206;BME280;11272;50.104;8.754;2023-05-18T11:36:08;101275.66;;;32.09;19.04
22206;BME280;11272;50.104;8.754;2023-05-18T11:44:44;101271.91;;;32.74;18.24
22206;BME280;11272;50.104;8.754;2023-05-18T11:46:53;101275.31;;;32.31;18.33
22206;BME280;11272;50.104;8.754;2023-05-18T11:49:24;101272.66;;;32.39;18.30
22206;BME280;11272;50.104;8.754;2023-05-18T11:54:24;101270.97;;;32.83;17.87
22206;BME280;11272;50.104;8.754;2023-05-18T11:56:51;101267.50;;;32.99;17.66
22206;BME280;11272;50.104;8.754;2023-05-18T11:59:29;101262.56;;;33.38;17.72
22206;BME280;11272;50.104;8.754;2023-05-18T12:02:01;101264.31;;;33.65;17.42
22206;BME280;11272;50.104;8.754;2023-05-18T12:04:29;101260.34;;;33.06;17.62
22206;BME280;11272;50.104;8.754;2023-05-18T12:06:56;101253.25;;;32.68;17.65
22206;BME280;11272;50.104;8.754;2023-05-18T12:09:23;101267.28;;;32.01;17.99
22206;BME280;11272;50.104;8.754;2023-05-18T12:11:53;101257.59;;;31.31;18.42
22206;BME280;11272;50.104;8.754;2023-05-18T12:14:20;101256.47;;;31.05;18.39
22206;BME280;11272;50.104;8.754;2023-05-18T12:16:47;101259.00;;;30.48;19.09
22206;BME280;11272;50.104;8.754;2023-05-18T12:19:14;101264.09;;;30.82;19.25
22206;BME280;11272;50.104;8.754;2023-05-18T12:21:41;101261.91;;;30.66;19.35
22206;BME280;11272;50.104;8.754;2023-05-18T12:24:07;101253.81;;;30.65;19.26
22206;BME280;11272;50.104;8.754;2023-05-18T12:26:33;101256.16;;;30.98;18.94
22206;BME280;11272;50.104;8.754;2023-05-18T12:29:01;101247.66;;;31.11;19.06
22206;BME280;11272;50.104;8.754;2023-05-18T12:31:28;101233.44;;;31.63;18.90
22206;BME280;11272;50.104;8.754;2023-05-18T12:33:55;101241.50;;;32.21;18.59
22206;BME280;11272;50.104;8.754;2023-05-18T12:36:21;101241.78;;;32.73;18.17
22206;BME280;11272;50.104;8.754;2023-05-18T12:38:51;101234.94;;;32.49;17.75
22206;BME280;11272;50.104;8.754;2023-05-18T12:41:24;101236.81;;;32.31;18.31
22206;BME280;11272;50.104;8.754;2023-05-18T12:43:57;101230.22;;;32.59;17.94
22206;BME280;11272;50.104;8.754;2023-05-18T12:46:23;101221.00;;;32.78;18.07
22206;BME280;11272;50.104;8.754;2023-05-18T12:48:56;101222.91;;;32.95;17.70
22206;BME280;11272;50.104;8.754;2023-05-18T12:51:23;101222.00;;;33.30;17.60
22206;BME280;11272;50.104;8.754;2023-05-18T12:53:55;101222.09;;;33.03;17.48
22206;BME280;11272;50.104;8.754;2023-05-18T12:56:21;101225.50;;;32.34;17.58
22206;BME280;11272;50.104;8.754;2023-05-18T12:58:57;101218.19;;;31.88;17.85
22206;BME280;11272;50.104;8.754;2023-05-18T13:01:29;101221.78;;;31.89;17.85
22206;BME280;11272;50.104;8.754;2023-05-18T13:03:56;101215.44;;;32.43;17.86
22206;BME280;11272;50.104;8.754;2023-05-18T13:06:23;101212.50;;;32.72;17.62
22206;BME280;11272;50.104;8.754;2023-05-18T13:08:52;101219.22;;;32.59;17.40
22206;BME280;11272;50.104;8.754;2023-05-18T13:11:18;101214.50;;;31.60;18.31
22206;BME280;11272;50.104;8.754;2023-05-18T13:13:57;101218.31;;;31.21;18.73
22206;BME280;11272;50.104;8.754;2023-05-18T13:16:23;101206.84;;;31.54;18.42
22206;BME280;11272;50.104;8.754;2023-05-18T13:18:57;101214.09;;;31.36;18.46
22206;BME280;11272;50.104;8.754;2023-05-18T13:21:23;101212.25;;;30.69;18.95
22206;BME280;11272;50.104;8.754;2023-05-18T13:23:49;101204.75;;;30.90;18.86
22206;BME280;11272;50.104;8.754;2023-05-18T13:26:16;101201.22;;;31.36;18.76
22206;BME280;11272;50.104;8.754;2023-05-18T13:28:45;101199.41;;;31.84;18.41
22206;BME280;11272;50.104;8.754;2023-05-18T13:31:10;101206.59;;;32.22;18.19